Time;durP1;ratioP1;P1;durP2;ratioP2;P2;SDS_P1;SDS_P2;PMS_P1;PMS_P2;Temp;Humidity;BMP_temperature;BMP_pressure;BME280_temperature;BME280_humidity;BME280_pressure;Samples;Min_cycle;Max_cycle;Signal;HPM_P1;HPM_P2
2024/03/04 00:01:58;;;;;;;9.77;6.90;;;5.80;99.90;;;;;;4993642;28;20198;-64
2024/03/04 00:04:26;;;;;;;8.27;7.40;;;5.80;99.90;;;;;;5014509;28;20210;-64
2024/03/04 00:06:54;;;;;;;7.60;6.83;;;5.80;99.90;;;;;;4998184;28;20252;-65
2024/03/04 00:09:22;;;;;;;8.50;7.70;;;5.80;99.90;;;;;;4997352;28;20233;-64
2024/03/04 00:11:51;;;;;;;7.57;6.77;;;5.80;99.90;;;;;;5003092;28;20242;-65
2024/03/04 00:14:19;;;;;;;11.77;7.43;;;5.80;99.90;;;;;;4996363;28;20191;-65
2024/03/04 00:16:48;;;;;;;8.83;7.50;;;5.80;99.90;;;;;;5014990;28;20218;-65
2024/03/04 00:19:18;;;;;;;9.80;7.70;;;5.80;99.90;;;;;;5016333;28;20580;-65
2024/03/04 00:21:47;;;;;;;14.70;8.13;;;5.70;99.90;;;;;;5007651;28;20215;-65
2024/03/04 00:24:16;;;;;;;8.80;7.67;;;5.70;99.90;;;;;;5034770;28;20271;-65
2024/03/04 00:26:44;;;;;;;11.10;7.70;;;5.60;99.90;;;;;;5010013;28;20312;-64
2024/03/04 00:29:12;;;;;;;8.83;7.53;;;5.60;99.90;;;;;;5018152;28;20226;-65
2024/03/04 00:31:40;;;;;;;9.10;7.27;;;5.60;99.90;;;;;;5013045;28;20222;-64
2024/03/04 00:34:09;;;;;;;9.70;7.73;;;5.60;99.90;;;;;;5006921;28;20264;-64
2024/03/04 00:36:39;;;;;;;8.43;7.57;;;5.60;99.90;;;;;;5020417;28;20751;-65
2024/03/04 00:39:09;;;;;;;8.40;7.40;;;5.60;99.90;;;;;;5013225;28;20235;-64
2024/03/04 00:41:37;;;;;;;11.33;8.23;;;5.60;99.90;;;;;;5015183;28;20233;-64
2024/03/04 00:44:06;;;;;;;8.93;8.03;;;5.60;99.90;;;;;;5014896;28;20205;-64
2024/03/04 00:46:34;;;;;;;9.67;8.13;;;5.60;99.90;;;;;;5023117;28;20214;-65
2024/03/04 00:49:04;;;;;;;12.13;7.90;;;5.60;99.90;;;;;;5005173;28;20222;-64
2024/03/04 00:51:32;;;;;;;8.97;8.07;;;5.70;99.90;;;;;;4997953;28;20577;-64
2024/03/04 00:54:02;;;;;;;8.33;7.53;;;5.70;99.90;;;;;;4998429;28;20231;-65
2024/03/04 00:56:33;;;;;;;9.33;8.00;;;5.80;99.90;;;;;;4997377;28;20772;-64
2024/03/04 00:59:02;;;;;;;7.70;7.00;;;5.80;99.90;;;;;;5009175;28;20238;-64
2024/03/04 01:01:30;;;;;;;9.67;7.50;;;5.80;99.90;;;;;;4996785;28;20226;-65
2024/03/04 01:04:01;;;;;;;9.73;7.57;;;5.80;99.90;;;;;;5008349;28;20226;-64
2024/03/04 01:06:29;;;;;;;9.50;8.17;;;5.80;99.90;;;;;;5003091;28;20229;-64
2024/03/04 01:08:58;;;;;;;12.37;8.23;;;5.80;99.90;;;;;;5002519;28;20234;-64
2024/03/04 01:11:27;;;;;;;9.43;8.47;;;5.80;99.90;;;;;;4992949;28;20222;-64
2024/03/04 01:13:56;;;;;;;10.23;8.77;;;5.80;99.90;;;;;;4995163;28;20653;-64
2024/03/04 01:16:25;;;;;;;11.73;9.47;;;5.80;99.90;;;;;;5009970;28;20397;-64
2024/03/04 01:18:54;;;;;;;13.93;9.00;;;5.80;99.90;;;;;;4999045;28;20277;-65
2024/03/04 01:21:24;;;;;;;11.40;9.53;;;5.80;99.90;;;;;;4996325;28;20223;-65
2024/03/04 01:23:52;;;;;;;11.43;9.43;;;5.80;99.90;;;;;;4996145;28;20305;-65
2024/03/04 01:26:21;;;;;;;14.23;9.80;;;5.80;99.90;;;;;;5000031;28;20639;-64
2024/03/04 01:28:50;;;;;;;18.33;10.33;;;5.80;99.90;;;;;;4997245;28;20577;-65
2024/03/04 01:31:18;;;;;;;15.17;9.80;;;5.80;99.90;;;;;;4998420;28;20214;-64
2024/03/04 01:33:47;;;;;;;13.80;10.27;;;5.80;99.90;;;;;;5015058;28;20237;-64
2024/03/04 01:36:15;;;;;;;13.50;10.20;;;5.70;99.90;;;;;;5017708;28;20228;-64
2024/03/04 01:38:43;;;;;;;13.20;10.13;;;5.70;99.90;;;;;;5000312;28;20261;-64
2024/03/04 01:41:12;;;;;;;13.50;10.73;;;5.70;99.90;;;;;;5023893;28;20197;-65
2024/03/04 01:43:40;;;;;;;14.03;11.07;;;5.70;99.90;;;;;;5018648;28;20233;-64
2024/03/04 01:46:10;;;;;;;15.70;11.50;;;5.70;99.90;;;;;;5024698;28;20225;-64
2024/03/04 01:48:39;;;;;;;12.57;10.60;;;5.70;99.90;;;;;;5014423;28;20632;-64
2024/03/04 01:51:08;;;;;;;15.83;11.93;;;5.60;99.90;;;;;;5026250;28;20239;-64
2024/03/04 01:53:38;;;;;;;18.53;12.70;;;5.60;99.90;;;;;;5022215;28;20204;-64
2024/03/04 01:56:08;;;;;;;12.90;11.60;;;5.60;99.90;;;;;;5019208;28;20217;-64
2024/03/04 01:58:42;;;;;;;15.03;12.13;;;5.60;99.90;;;;;;5018685;28;20236;-65
2024/03/04 02:01:13;;;;;;;17.83;13.00;;;5.60;99.90;;;;;;5025185;28;20259;-64
2024/03/04 02:03:42;;;;;;;18.97;12.83;;;5.60;99.90;;;;;;5007883;28;20253;-64
2024/03/04 02:06:11;;;;;;;20.53;12.97;;;5.60;99.90;;;;;;4991905;28;20316;-64
2024/03/04 02:08:39;;;;;;;17.07;12.77;;;5.60;99.90;;;;;;5004701;28;20237;-64
2024/03/04 02:11:08;;;;;;;15.67;12.07;;;5.60;99.90;;;;;;4993946;28;20216;-64
2024/03/04 02:13:37;;;;;;;17.93;13.10;;;5.60;99.90;;;;;;5000768;28;20253;-64
2024/03/04 02:16:06;;;;;;;18.40;13.30;;;5.60;99.90;;;;;;4995843;28;20230;-64
2024/03/04 02:18:36;;;;;;;14.40;12.10;;;5.60;99.90;;;;;;4990930;28;20578;-64
2024/03/04 02:21:07;;;;;;;15.57;12.40;;;5.60;99.90;;;;;;4999855;28;20215;-64
2024/03/04 02:23:37;;;;;;;19.17;12.37;;;5.60;99.90;;;;;;5003662;28;20194;-65
2024/03/04 02:26:06;;;;;;;15.60;12.30;;;5.60;99.90;;;;;;4996596;28;20210;-64
2024/03/04 02:28:34;;;;;;;18.97;12.90;;;5.60;99.90;;;;;;4994671;28;20226;-63
2024/03/04 02:31:06;;;;;;;17.13;11.97;;;5.60;99.90;;;;;;4996937;28;20218;-63
2024/03/04 02:33:35;;;;;;;14.87;12.00;;;5.60;99.90;;;;;;5001543;28;20958;-63
2024/03/04 02:36:04;;;;;;;16.57;13.17;;;5.60;99.90;;;;;;4996480;28;20240;-64
2024/03/04 02:38:34;;;;;;;18.83;12.70;;;5.60;99.90;;;;;;4994606;28;20666;-64
2024/03/04 02:41:04;;;;;;;18.57;13.27;;;5.60;99.90;;;;;;4994221;28;20194;-64
2024/03/04 02:43:35;;;;;;;18.20;13.00;;;5.50;99.90;;;;;;4988123;28;20705;-64
2024/03/04 02:46:03;;;;;;;16.27;12.97;;;5.50;99.90;;;;;;4999203;28;20218;-64
2024/03/04 02:48:32;;;;;;;20.27;13.20;;;5.50;99.90;;;;;;4995481;28;20690;-64
2024/03/04 02:51:01;;;;;;;19.63;13.47;;;5.50;99.90;;;;;;4998514;28;20218;-64
2024/03/04 02:53:29;;;;;;;18.17;13.97;;;5.50;99.90;;;;;;4996051;28;20194;-64
2024/03/04 02:55:57;;;;;;;17.70;13.97;;;5.50;99.90;;;;;;4999169;28;20293;-63
2024/03/04 02:58:27;;;;;;;17.80;13.63;;;5.50;99.90;;;;;;4993369;28;20313;-64
2024/03/04 03:00:56;;;;;;;18.63;14.13;;;5.50;99.90;;;;;;4994593;28;20280;-64
2024/03/04 03:03:24;;;;;;;22.43;13.97;;;5.40;99.90;;;;;;4992610;28;20226;-64
2024/03/04 03:05:52;;;;;;;18.47;14.27;;;5.40;99.90;;;;;;4993778;28;20226;-64
2024/03/04 03:08:20;;;;;;;18.43;14.47;;;5.40;99.90;;;;;;4994611;28;20284;-64
2024/03/04 03:10:49;;;;;;;18.27;14.73;;;5.40;99.90;;;;;;5011394;28;20226;-63
2024/03/04 03:13:17;;;;;;;20.80;15.10;;;5.30;99.90;;;;;;4998210;28;20648;-64
2024/03/04 03:15:50;;;;;;;17.07;14.03;;;5.30;99.90;;;;;;5009111;28;20257;-64
2024/03/04 03:18:18;;;;;;;22.33;15.17;;;5.30;99.90;;;;;;5013624;28;20233;-63
2024/03/04 03:20:47;;;;;;;21.60;14.83;;;5.30;99.90;;;;;;5010677;28;20295;-64
2024/03/04 03:23:15;;;;;;;21.13;15.07;;;5.30;99.90;;;;;;5010146;28;20236;-64
2024/03/04 03:25:43;;;;;;;19.30;14.77;;;5.20;99.90;;;;;;5013704;28;20275;-64
2024/03/04 03:28:13;;;;;;;19.73;15.27;;;5.20;99.90;;;;;;5011904;28;20225;-63
2024/03/04 03:30:42;;;;;;;21.60;15.43;;;5.20;99.90;;;;;;5011314;28;20214;-64
2024/03/04 03:33:12;;;;;;;20.37;15.33;;;5.20;99.90;;;;;;5022634;28;20221;-64
2024/03/04 03:35:40;;;;;;;21.87;16.20;;;5.20;99.90;;;;;;5016508;28;20193;-63
2024/03/04 03:38:09;;;;;;;23.07;16.33;;;5.10;99.90;;;;;;5020860;28;20198;-64
2024/03/04 03:40:37;;;;;;;22.07;17.03;;;5.10;99.90;;;;;;4995272;28;20233;-63
2024/03/04 03:43:05;;;;;;;21.47;17.03;;;5.10;99.90;;;;;;4998679;28;20271;-64
2024/03/04 03:45:34;;;;;;;24.63;16.93;;;5.10;99.90;;;;;;5018524;28;20218;-64
2024/03/04 03:48:05;;;;;;;23.50;17.90;;;5.10;99.90;;;;;;5010563;28;20232;-64
2024/03/04 03:50:34;;;;;;;23.97;18.30;;;5.10;99.90;;;;;;5016719;28;20248;-64
2024/03/04 03:53:04;;;;;;;25.87;18.53;;;5.00;99.90;;;;;;5019958;28;20543;-64
2024/03/04 03:55:32;;;;;;;28.50;18.27;;;5.00;99.90;;;;;;5020414;28;20228;-64
2024/03/04 03:58:01;;;;;;;26.37;18.33;;;5.00;99.90;;;;;;5007816;28;20301;-64
2024/03/04 04:00:30;;;;;;;28.57;19.57;;;5.00;99.90;;;;;;5012012;28;20236;-64
2024/03/04 04:03:01;;;;;;;26.63;18.13;;;5.00;99.90;;;;;;5012000;28;20299;-64
2024/03/04 04:05:29;;;;;;;29.10;19.07;;;5.00;99.90;;;;;;5017174;28;20244;-64
2024/03/04 04:07:59;;;;;;;30.77;20.47;;;5.00;99.90;;;;;;5015914;28;20230;-64
2024/03/04 04:10:28;;;;;;;29.13;19.77;;;5.00;99.90;;;;;;5012669;28;20245;-64
2024/03/04 04:12:56;;;;;;;28.93;19.80;;;5.00;99.90;;;;;;5015096;28;20218;-63
2024/03/04 04:15:24;;;;;;;28.00;20.90;;;5.00;99.90;;;;;;5018700;28;20237;-64
2024/03/04 04:17:57;;;;;;;29.00;19.90;;;5.00;99.90;;;;;;5016992;28;20225;-64
2024/03/04 04:20:26;;;;;;;33.10;21.97;;;5.00;99.90;;;;;;5020656;28;20202;-64
2024/03/04 04:22:55;;;;;;;32.10;21.80;;;5.00;99.90;;;;;;5013245;28;20534;-64
2024/03/04 04:25:25;;;;;;;33.73;21.63;;;5.00;99.90;;;;;;5018526;28;20225;-64
2024/03/04 04:27:53;;;;;;;33.03;23.27;;;5.00;99.90;;;;;;5017126;28;20562;-63
2024/03/04 04:30:21;;;;;;;28.73;21.07;;;5.00;99.90;;;;;;5026495;28;20213;-64
2024/03/04 04:32:50;;;;;;;32.93;21.90;;;5.00;99.90;;;;;;5018297;28;20236;-64
2024/03/04 04:35:18;;;;;;;38.17;23.50;;;4.90;99.90;;;;;;5022640;28;20529;-64
2024/03/04 04:37:46;;;;;;;34.07;22.93;;;5.00;99.90;;;;;;5016136;28;20206;-64
2024/03/04 04:40:19;;;;;;;42.40;25.03;;;5.00;99.90;;;;;;5015950;28;20235;-63
2024/03/04 04:42:49;;;;;;;36.37;25.30;;;4.90;99.90;;;;;;5024581;28;20217;-63
2024/03/04 04:45:17;;;;;;;43.67;25.87;;;4.90;99.90;;;;;;5014312;28;20305;-64
2024/03/04 04:47:46;;;;;;;40.07;25.97;;;4.90;99.90;;;;;;5011536;28;20308;-64
2024/03/04 04:50:14;;;;;;;42.57;28.47;;;4.90;99.90;;;;;;5013958;28;20580;-63
2024/03/04 04:52:42;;;;;;;41.37;26.67;;;4.90;99.90;;;;;;5009878;28;20296;-64
2024/03/04 04:55:11;;;;;;;42.40;27.43;;;5.00;99.90;;;;;;5015280;28;20218;-63
2024/03/04 04:57:43;;;;;;;45.33;28.17;;;5.00;99.90;;;;;;5011476;28;20214;-64
2024/03/04 05:00:15;;;;;;;42.23;26.77;;;5.00;99.90;;;;;;5016876;28;20696;-64
2024/03/04 05:02:43;;;;;;;41.47;26.30;;;5.00;99.90;;;;;;5003807;28;20664;-64
2024/03/04 05:05:11;;;;;;;39.07;26.60;;;5.00;99.90;;;;;;5017121;28;20187;-63
2024/03/04 05:07:40;;;;;;;40.40;27.03;;;5.00;99.90;;;;;;5018216;28;20418;-64
2024/03/04 05:10:09;;;;;;;41.10;25.93;;;4.90;99.90;;;;;;5015319;28;20249;-64
2024/03/04 05:12:37;;;;;;;39.57;27.23;;;4.90;99.90;;;;;;5022609;28;20237;-64
2024/03/04 05:15:07;;;;;;;39.07;26.07;;;4.90;99.90;;;;;;5020919;28;20219;-64
2024/03/04 05:17:37;;;;;;;42.50;26.50;;;4.90;99.90;;;;;;5023726;28;20604;-64
2024/03/04 05:20:07;;;;;;;41.77;28.03;;;4.80;99.90;;;;;;5004757;28;20261;-64
2024/03/04 05:22:35;;;;;;;44.57;28.33;;;4.80;99.90;;;;;;5013966;28;20242;-64
2024/03/04 05:25:05;;;;;;;46.20;27.63;;;4.80;99.90;;;;;;5011135;28;20313;-63
2024/03/04 05:27:34;;;;;;;42.80;27.27;;;4.80;99.90;;;;;;5010062;28;20585;-64
2024/03/04 05:30:02;;;;;;;43.37;27.30;;;4.80;99.90;;;;;;5001213;28;20599;-64
2024/03/04 05:32:30;;;;;;;46.53;27.73;;;4.70;99.90;;;;;;5015098;28;20190;-64
2024/03/04 05:35:00;;;;;;;47.97;29.63;;;4.70;99.90;;;;;;5028398;28;20209;-63
2024/03/04 05:37:28;;;;;;;43.50;27.10;;;4.70;99.90;;;;;;5022594;28;20583;-64
2024/03/04 05:39:56;;;;;;;45.40;27.23;;;4.70;99.90;;;;;;5017109;28;20591;-63
2024/03/04 05:42:25;;;;;;;41.40;28.13;;;4.70;99.90;;;;;;5022066;28;20229;-63
2024/03/04 05:44:53;;;;;;;51.30;29.83;;;4.70;99.90;;;;;;5019861;28;20310;-63
2024/03/04 05:47:22;;;;;;;45.13;27.50;;;4.70;99.90;;;;;;5014489;28;20198;-60
2024/03/04 05:49:50;;;;;;;47.10;27.90;;;4.70;99.90;;;;;;5008830;28;20603;-64
2024/03/04 05:52:20;;;;;;;45.83;28.50;;;4.70;99.90;;;;;;5022522;28;20581;-64
2024/03/04 05:54:48;;;;;;;45.43;28.17;;;4.60;99.90;;;;;;5014019;28;20221;-64
2024/03/04 05:57:17;;;;;;;44.40;27.33;;;4.60;99.90;;;;;;5006860;28;20684;-64
2024/03/04 05:59:45;;;;;;;47.63;28.50;;;4.60;99.90;;;;;;5013349;28;20229;-64
2024/03/04 06:02:14;;;;;;;44.90;26.53;;;4.60;99.90;;;;;;5020308;28;20648;-64
2024/03/04 06:04:42;;;;;;;41.30;26.63;;;4.60;99.90;;;;;;5021488;28;20217;-63
2024/03/04 06:07:10;;;;;;;45.87;27.60;;;4.60;99.90;;;;;;5007021;28;20249;-63
2024/03/04 06:09:40;;;;;;;47.97;28.07;;;4.60;99.90;;;;;;5014320;28;20229;-64
2024/03/04 06:12:09;;;;;;;50.90;29.03;;;4.60;99.90;;;;;;5017939;28;20225;-63
2024/03/04 06:14:37;;;;;;;45.40;27.17;;;4.60;99.90;;;;;;5016002;28;20212;-63
2024/03/04 06:17:06;;;;;;;44.67;27.90;;;4.60;99.90;;;;;;5016416;28;20202;-64
2024/03/04 06:19:34;;;;;;;43.13;27.50;;;4.60;99.90;;;;;;5012366;28;20218;-64
2024/03/04 06:22:04;;;;;;;46.00;28.03;;;4.60;99.90;;;;;;5012988;28;20752;-64
2024/03/04 06:24:41;;;;;;;44.43;26.33;;;4.70;99.90;;;;;;5013231;28;20309;-64
2024/03/04 06:27:10;;;;;;;45.87;27.13;;;4.70;99.90;;;;;;5014118;28;20230;-64
2024/03/04 06:29:38;;;;;;;43.83;26.50;;;4.60;99.90;;;;;;5012498;28;20210;-64
2024/03/04 06:32:07;;;;;;;45.03;26.50;;;4.60;99.90;;;;;;5017055;28;20297;-65
2024/03/04 06:34:35;;;;;;;48.73;27.77;;;4.60;99.90;;;;;;5019122;28;20898;-64
2024/03/04 06:37:03;;;;;;;45.63;26.30;;;4.60;99.90;;;;;;5019326;28;20218;-65
2024/03/04 06:39:33;;;;;;;41.60;24.97;;;4.60;99.90;;;;;;5024566;28;20225;-64
2024/03/04 06:42:03;;;;;;;42.33;26.20;;;4.50;99.90;;;;;;5010321;28;20230;-64
2024/03/04 06:44:32;;;;;;;43.00;26.43;;;4.50;99.90;;;;;;5013957;28;20212;-64
2024/03/04 06:47:00;;;;;;;41.40;26.53;;;4.50;99.90;;;;;;5013615;28;20229;-64
2024/03/04 06:49:28;;;;;;;38.57;26.07;;;4.50;99.90;;;;;;5013516;28;20313;-64
2024/03/04 06:51:57;;;;;;;43.73;26.77;;;4.50;99.90;;;;;;5023392;28;20228;-64
2024/03/04 06:54:25;;;;;;;41.07;25.83;;;4.50;99.90;;;;;;5008571;28;20222;-65
2024/03/04 06:56:53;;;;;;;44.20;25.73;;;4.50;99.90;;;;;;5019041;28;20234;-64
2024/03/04 06:59:23;;;;;;;44.63;26.33;;;4.50;99.90;;;;;;5017771;28;20190;-61
2024/03/04 07:01:51;;;;;;;44.30;25.40;;;4.50;99.90;;;;;;5013533;28;20693;-65
2024/03/04 07:04:19;;;;;;;44.53;25.93;;;4.50;99.90;;;;;;5018295;28;20272;-64
2024/03/04 07:06:48;;;;;;;40.53;25.37;;;4.50;99.90;;;;;;5011594;28;20225;-64
2024/03/04 07:09:16;;;;;;;42.87;25.90;;;4.50;99.90;;;;;;5020282;28;20679;-64
2024/03/04 07:11:44;;;;;;;42.97;25.60;;;4.50;99.90;;;;;;5018263;28;20225;-65
2024/03/04 07:14:13;;;;;;;41.53;25.53;;;4.50;99.90;;;;;;5012570;28;20197;-64
2024/03/04 07:16:42;;;;;;;40.60;25.93;;;4.50;99.90;;;;;;5015851;28;20225;-64
2024/03/04 07:19:11;;;;;;;39.70;25.20;;;4.50;99.90;;;;;;5009159;28;20313;-64
2024/03/04 07:21:39;;;;;;;47.33;24.37;;;4.50;99.90;;;;;;5011407;28;20301;-64
2024/03/04 07:24:08;;;;;;;38.20;22.77;;;4.50;99.90;;;;;;5013699;28;20256;-64
2024/03/04 07:26:36;;;;;;;34.90;22.63;;;4.40;99.90;;;;;;5007867;28;20601;-64
2024/03/04 07:29:04;;;;;;;42.30;24.77;;;4.40;99.90;;;;;;5018873;28;20216;-65
2024/03/04 07:31:44;;;;;;;39.33;24.33;;;4.30;99.90;;;;;;5019063;28;20225;-65
2024/03/04 07:34:12;;;;;;;40.57;25.17;;;4.30;99.90;;;;;;5015883;28;20215;-64
2024/03/04 07:36:40;;;;;;;41.73;24.73;;;4.30;99.90;;;;;;5016069;28;20228;-64
2024/03/04 07:39:09;;;;;;;36.83;23.80;;;4.30;99.90;;;;;;5015781;28;20232;-64
2024/03/04 07:41:37;;;;;;;40.03;25.43;;;4.20;99.90;;;;;;5012493;28;20645;-64
2024/03/04 07:44:06;;;;;;;40.10;25.37;;;4.20;99.90;;;;;;5018718;28;20194;-64
2024/03/04 07:46:34;;;;;;;44.47;26.80;;;4.30;99.90;;;;;;5017662;28;20659;-64
2024/03/04 07:49:04;;;;;;;39.77;25.60;;;4.30;99.90;;;;;;5012159;28;20253;-65
2024/03/04 07:51:32;;;;;;;45.30;27.03;;;4.40;99.90;;;;;;5017534;28;20221;-65
2024/03/04 07:54:00;;;;;;;42.17;27.60;;;4.60;99.90;;;;;;5015779;28;20328;-64
2024/03/04 07:56:29;;;;;;;50.97;28.90;;;4.80;99.90;;;;;;5011667;28;20244;-64
2024/03/04 07:58:57;;;;;;;50.27;28.87;;;5.00;99.90;;;;;;5014617;28;20185;-64
2024/03/04 08:01:25;;;;;;;48.20;28.83;;;5.30;99.90;;;;;;5016702;28;20264;-64
2024/03/04 08:03:53;;;;;;;41.47;26.83;;;5.60;99.90;;;;;;5019237;28;20584;-65
2024/03/04 08:06:23;;;;;;;43.30;25.10;;;5.80;99.90;;;;;;5011645;28;20249;-65
2024/03/04 08:08:52;;;;;;;38.40;24.53;;;5.80;99.90;;;;;;5018653;28;20248;-65
2024/03/04 08:11:20;;;;;;;38.63;24.50;;;5.90;99.90;;;;;;5015015;28;20190;-65
2024/03/04 08:13:48;;;;;;;34.80;23.20;;;6.00;99.90;;;;;;4991359;28;20317;-64
2024/03/04 08:16:17;;;;;;;32.80;21.43;;;6.10;99.90;;;;;;4992448;28;20222;-64
2024/03/04 08:18:45;;;;;;;31.27;21.13;;;6.30;99.90;;;;;;4992818;28;20210;-65
2024/03/04 08:21:15;;;;;;;33.13;20.70;;;6.50;99.90;;;;;;4991703;28;20334;-65
2024/03/04 08:23:45;;;;;;;30.60;20.27;;;6.80;99.90;;;;;;4989164;28;20285;-65
2024/03/04 08:26:13;;;;;;;28.67;19.40;;;6.90;99.90;;;;;;4998640;28;20198;-65
2024/03/04 08:28:42;;;;;;;29.73;19.07;;;7.20;99.90;;;;;;4990783;28;20222;-65
2024/03/04 08:31:10;;;;;;;26.10;16.83;;;7.20;99.90;;;;;;4999660;28;20222;-65
2024/03/04 08:33:38;;;;;;;28.80;18.27;;;7.10;99.90;;;;;;4998361;28;20629;-64
2024/03/04 08:36:07;;;;;;;24.33;16.73;;;7.10;99.90;;;;;;4990980;28;20759;-65
2024/03/04 08:38:36;;;;;;;22.50;16.43;;;7.10;99.90;;;;;;4993122;28;20268;-65
2024/03/04 08:41:06;;;;;;;23.30;17.47;;;7.10;99.90;;;;;;4995782;28;20191;-65
2024/03/04 08:43:34;;;;;;;23.70;17.97;;;7.20;99.90;;;;;;4993131;28;20241;-64
2024/03/04 08:46:02;;;;;;;23.53;17.23;;;7.20;99.90;;;;;;4984658;28;20289;-64
2024/03/04 08:48:32;;;;;;;24.93;17.93;;;7.30;99.90;;;;;;4986707;28;20832;-65
2024/03/04 08:51:00;;;;;;;25.07;17.50;;;7.30;99.90;;;;;;4988785;28;20310;-65
2024/03/04 08:53:29;;;;;;;24.10;16.90;;;7.30;99.90;;;;;;4987403;28;20191;-65
2024/03/04 08:55:57;;;;;;;25.00;17.67;;;7.30;99.90;;;;;;4987141;28;20279;-65
2024/03/04 08:58:27;;;;;;;29.17;18.03;;;7.30;99.90;;;;;;4991423;28;20272;-65
2024/03/04 09:00:55;;;;;;;27.80;17.67;;;7.40;99.90;;;;;;4988090;28;20226;-65
2024/03/04 09:03:23;;;;;;;26.60;19.07;;;7.40;99.90;;;;;;4993728;28;20230;-65
2024/03/04 09:05:52;;;;;;;25.57;17.87;;;7.40;99.90;;;;;;4992522;28;20750;-65
2024/03/04 09:08:21;;;;;;;26.57;18.27;;;7.40;99.90;;;;;;4989431;28;20226;-65
2024/03/04 09:10:49;;;;;;;25.73;17.07;;;7.30;99.90;;;;;;4997269;28;20227;-65
2024/03/04 09:13:19;;;;;;;26.80;17.27;;;7.40;99.90;;;;;;4992227;28;20257;-65
2024/03/04 09:15:49;;;;;;;24.13;17.23;;;7.50;99.90;;;;;;4996308;28;20850;-65
2024/03/04 09:18:17;;;;;;;29.43;16.33;;;7.60;99.90;;;;;;4996868;28;20249;-65
2024/03/04 09:20:46;;;;;;;24.13;16.30;;;7.80;99.90;;;;;;5007422;28;20288;-65
2024/03/04 09:23:14;;;;;;;21.20;14.90;;;7.90;99.90;;;;;;4997031;28;20289;-65
2024/03/04 09:25:43;;;;;;;18.87;14.20;;;8.00;99.90;;;;;;4995343;28;20566;-64
2024/03/04 09:28:11;;;;;;;20.13;14.33;;;8.10;99.90;;;;;;4995228;28;20242;-65
2024/03/04 09:30:40;;;;;;;18.63;13.43;;;8.40;99.90;;;;;;5004876;28;20314;-65
2024/03/04 09:33:11;;;;;;;19.33;13.63;;;8.50;99.90;;;;;;5018184;28;20222;-65
2024/03/04 09:35:40;;;;;;;17.30;12.87;;;8.70;99.90;;;;;;5017836;28;20198;-64
2024/03/04 09:38:08;;;;;;;19.23;12.83;;;8.90;99.90;;;;;;5013036;28;20289;-65
2024/03/04 09:40:37;;;;;;;17.93;12.67;;;9.10;99.90;;;;;;5011430;28;20262;-65
2024/03/04 09:43:06;;;;;;;18.13;13.37;;;9.30;99.90;;;;;;5015520;28;20221;-65
2024/03/04 09:45:36;;;;;;;18.20;12.20;;;9.60;99.90;;;;;;5013970;28;20224;-65
2024/03/04 09:48:06;;;;;;;16.07;11.07;;;10.00;99.90;;;;;;5014257;28;20776;-66
2024/03/04 09:50:38;;;;;;;12.60;10.13;;;10.40;99.90;;;;;;4993751;28;20210;-65
2024/03/04 09:53:07;;;;;;;14.53;10.13;;;10.80;99.90;;;;;;5002782;28;20199;-66
2024/03/04 09:55:35;;;;;;;12.60;10.10;;;10.90;99.90;;;;;;4999519;28;20547;-66
2024/03/04 09:58:05;;;;;;;11.30;8.60;;;11.40;99.90;;;;;;4993805;28;20678;-65
2024/03/04 10:00:35;;;;;;;12.70;9.17;;;11.80;99.90;;;;;;4993299;28;20261;-65
2024/03/04 10:03:09;;;;;;;12.87;8.83;;;12.20;99.90;;;;;;4988385;28;20215;-65
2024/03/04 10:05:40;;;;;;;9.53;6.93;;;12.40;99.90;;;;;;4990442;28;20287;-65
2024/03/04 10:08:09;;;;;;;10.30;8.20;;;12.70;99.90;;;;;;4985944;28;20223;-66
2024/03/04 10:10:37;;;;;;;8.33;7.13;;;13.00;99.90;;;;;;4995395;28;20247;-65
2024/03/04 10:13:10;;;;;;;11.17;7.60;;;13.20;99.90;;;;;;4995571;28;20713;-66
2024/03/04 10:15:40;;;;;;;9.00;6.90;;;13.50;99.90;;;;;;4998104;28;20640;-65
2024/03/04 10:18:12;;;;;;;7.40;6.70;;;13.90;99.90;;;;;;5003305;28;20317;-65
2024/03/04 10:20:42;;;;;;;8.90;6.30;;;14.20;99.90;;;;;;4995605;28;20196;-65
2024/03/04 10:23:11;;;;;;;6.70;5.00;;;14.40;99.90;;;;;;4998859;28;20207;-64
2024/03/04 10:25:39;;;;;;;11.40;5.40;;;14.50;99.90;;;;;;4997220;28;20235;-64
2024/03/04 10:28:07;;;;;;;9.43;5.70;;;14.60;99.90;;;;;;4997031;28;20232;-64
2024/03/04 10:30:36;;;;;;;6.27;4.77;;;14.80;99.90;;;;;;4995629;28;20247;-64
2024/03/04 10:33:04;;;;;;;8.23;4.80;;;14.80;99.90;;;;;;4996004;28;20320;-64
2024/03/04 10:35:35;;;;;;;9.00;5.30;;;14.90;99.90;;;;;;4999285;28;20198;-65
2024/03/04 10:38:06;;;;;;;6.50;5.10;;;14.90;99.90;;;;;;4998023;28;20196;-64
2024/03/04 10:40:36;;;;;;;10.73;5.20;;;15.20;99.90;;;;;;4999332;28;20222;-64
2024/03/04 10:43:07;;;;;;;6.63;5.13;;;15.40;99.90;;;;;;4997308;28;20609;-64
2024/03/04 10:45:36;;;;;;;5.33;4.90;;;15.40;99.90;;;;;;4991136;28;20222;-64
2024/03/04 10:48:06;;;;;;;6.47;4.90;;;15.30;99.90;;;;;;4995551;28;20218;-64
2024/03/04 10:50:34;;;;;;;3.60;3.40;;;15.20;99.90;;;;;;4989110;28;20215;-64
2024/03/04 10:53:05;;;;;;;7.27;4.00;;;15.40;99.90;;;;;;4998290;28;20198;-64
2024/03/04 10:55:33;;;;;;;6.70;4.03;;;15.60;99.90;;;;;;4993528;28;21020;-65
2024/03/04 10:58:03;;;;;;;3.80;3.50;;;15.80;99.90;;;;;;4993593;28;20223;-65
2024/03/04 11:00:33;;;;;;;4.23;3.33;;;15.70;99.90;;;;;;4995647;28;20301;-65
2024/03/04 11:03:15;;;;;;;3.50;3.30;;;16.00;99.90;;;;;;4995731;28;20218;-65
2024/03/04 11:05:46;;;;;;;3.57;3.27;;;16.10;99.90;;;;;;4999849;28;20250;-65
2024/03/04 11:08:27;;;;;;;3.83;3.40;;;16.40;99.90;;;;;;4999793;28;20256;-65
2024/03/04 11:11:01;;;;;;;3.13;2.83;;;16.50;99.90;;;;;;5022402;28;20298;-65
2024/03/04 11:13:38;;;;;;;4.17;3.27;;;16.60;99.90;;;;;;5011267;28;20219;-65
2024/03/04 11:16:12;;;;;;;3.97;3.07;;;16.60;99.90;;;;;;5015500;28;21205;-65
2024/03/04 11:18:49;;;;;;;4.83;3.13;;;16.90;99.90;;;;;;5005851;28;20293;-65
2024/03/04 11:21:19;;;;;;;2.93;2.33;;;17.20;99.90;;;;;;4987837;28;20687;-65
2024/03/04 11:23:50;;;;;;;2.67;2.47;;;17.20;99.90;;;;;;4991394;28;20226;-65
2024/03/04 11:26:20;;;;;;;4.20;3.27;;;17.20;99.90;;;;;;4995473;28;20209;-65
2024/03/04 11:28:49;;;;;;;4.00;2.87;;;17.50;99.90;;;;;;4997663;28;20585;-65
2024/03/04 11:31:27;;;;;;;4.50;2.67;;;17.50;99.90;;;;;;4991814;28;20257;-64
2024/03/04 11:34:02;;;;;;;2.80;2.70;;;17.70;99.90;;;;;;4996513;28;20231;-66
2024/03/04 11:36:32;;;;;;;3.00;2.70;;;17.80;99.90;;;;;;5025863;28;20302;-65
2024/03/04 11:39:05;;;;;;;3.13;2.90;;;18.10;99.90;;;;;;4999355;28;20230;-65
2024/03/04 11:41:44;;;;;;;6.63;3.67;;;18.20;99.90;;;;;;5014651;28;20194;-65
2024/03/04 11:44:13;;;;;;;4.47;3.80;;;18.60;98.30;;;;;;5015801;28;20306;-65
2024/03/04 11:46:42;;;;;;;4.60;3.70;;;18.50;97.40;;;;;;5017628;28;20312;-65
2024/03/04 11:49:26;;;;;;;3.60;2.87;;;18.60;97.70;;;;;;5016381;28;20291;-65
2024/03/04 11:51:59;;;;;;;3.33;3.03;;;18.70;92.80;;;;;;5013773;28;20568;-65
2024/03/04 11:54:43;;;;;;;3.27;2.97;;;19.00;90.90;;;;;;5015869;28;20572;-66
2024/03/04 11:57:12;;;;;;;3.67;3.40;;;18.90;92.00;;;;;;5011951;28;20243;-64
2024/03/04 11:59:42;;;;;;;4.20;3.53;;;19.20;91.30;;;;;;5014105;28;20280;-64
2024/03/04 12:02:11;;;;;;;4.13;2.80;;;19.20;95.10;;;;;;5019429;28;20256;-64
2024/03/04 12:04:41;;;;;;;3.33;3.10;;;19.50;91.10;;;;;;5008406;28;20293;-64
2024/03/04 12:07:10;;;;;;;3.30;3.00;;;19.80;92.50;;;;;;5003469;28;21165;-64
2024/03/04 12:09:40;;;;;;;3.20;2.90;;;19.50;86.50;;;;;;5010942;28;20709;-65
2024/03/04 12:12:29;;;;;;;3.30;3.10;;;19.10;75.50;;;;;;5008242;28;20300;-64
2024/03/04 12:14:57;;;;;;;3.50;3.23;;;18.30;82.40;;;;;;4996015;28;20232;-65
2024/03/04 12:17:27;;;;;;;3.63;3.30;;;18.20;86.00;;;;;;4998974;28;20293;-65
2024/03/04 12:19:57;;;;;;;3.63;3.30;;;18.20;92.00;;;;;;4993999;28;20225;-64
2024/03/04 12:22:26;;;;;;;6.13;3.17;;;18.80;88.60;;;;;;4989927;28;20218;-63
2024/03/04 12:25:05;;;;;;;5.73;3.60;;;18.40;93.40;;;;;;4994142;28;20230;-65
2024/03/04 12:27:36;;;;;;;4.10;3.80;;;18.40;88.90;;;;;;4996402;28;20254;-64
2024/03/04 12:30:12;;;;;;;4.27;2.60;;;18.30;91.20;;;;;;4989245;28;20646;-63
2024/03/04 12:32:42;;;;;;;2.90;2.30;;;18.60;88.30;;;;;;4992319;28;20749;-65
2024/03/04 12:35:17;;;;;;;2.60;2.17;;;18.60;73.30;;;;;;4992409;28;20555;-63
2024/03/04 12:37:48;;;;;;;2.67;2.40;;;18.80;83.20;;;;;;5003319;28;20229;-64
2024/03/04 12:40:18;;;;;;;2.70;2.50;;;18.80;76.30;;;;;;5005908;28;20327;-64
2024/03/04 12:42:54;;;;;;;3.73;2.70;;;18.70;77.90;;;;;;4998222;28;20225;-64
2024/03/04 12:45:25;;;;;;;2.90;2.70;;;18.60;78.90;;;;;;4994993;28;20228;-64
2024/03/04 12:47:55;;;;;;;3.07;2.83;;;18.60;86.00;;;;;;4996206;28;20220;-64
2024/03/04 12:50:24;;;;;;;3.43;3.13;;;18.90;90.30;;;;;;4995012;28;20629;-63
2024/03/04 12:52:53;;;;;;;4.60;3.00;;;18.70;84.10;;;;;;5021880;28;20527;-63